Time;durP1;ratioP1;P1;durP2;ratioP2;P2;SDS_P1;SDS_P2;PMS_P1;PMS_P2;Temp;Humidity;BMP_temperature;BMP_pressure;BME280_temperature;BME280_humidity;BME280_pressure;Samples;Min_cycle;Max_cycle;Signal;HPM_P1;HPM_P2
2024/04/02 00:01:02;;;;;;;6.95;3.50;;;;;;;7.54;100.00;98957.13;5051514;28;20080;-62
2024/04/02 00:03:28;;;;;;;7.85;3.40;;;;;;;7.50;100.00;98959.00;5061303;28;20064;-62
2024/04/02 00:05:55;;;;;;;6.63;3.05;;;;;;;7.49;100.00;98965.69;5052504;28;20074;-61
2024/04/02 00:08:21;;;;;;;7.55;2.63;;;;;;;7.50;100.00;98958.22;5051551;28;20057;-62
2024/04/02 00:10:47;;;;;;;9.32;2.47;;;;;;;7.48;100.00;98961.34;5048189;28;20430;-62
2024/04/02 00:13:14;;;;;;;5.80;2.20;;;;;;;7.46;100.00;98955.41;5062046;28;20044;-61
2024/04/02 00:15:48;;;;;;;7.63;2.20;;;;;;;7.44;100.00;98956.94;5061071;28;20048;-62
2024/04/02 00:18:15;;;;;;;9.60;2.55;;;;;;;7.43;100.00;98953.41;5058044;28;20052;-62
2024/04/02 00:20:42;;;;;;;5.35;2.33;;;;;;;7.43;100.00;98958.09;5052701;28;20051;-61
2024/04/02 00:23:09;;;;;;;5.18;2.22;;;;;;;7.41;100.00;98966.75;5058739;28;20045;-62
2024/04/02 00:25:36;;;;;;;4.57;3.00;;;;;;;7.43;100.00;98960.84;5052878;28;20049;-62
2024/04/02 00:28:03;;;;;;;3.83;2.08;;;;;;;7.40;100.00;98959.63;5052414;28;20036;-61
2024/04/02 00:30:32;;;;;;;2.63;2.13;;;;;;;7.39;100.00;98962.75;5050196;28;20048;-61
2024/04/02 00:32:58;;;;;;;4.38;1.92;;;;;;;7.30;100.00;98952.00;5050838;28;20506;-61
2024/04/02 00:35:24;;;;;;;3.65;2.00;;;;;;;7.25;100.00;98966.06;5054753;28;20052;-61
2024/04/02 00:37:51;;;;;;;4.47;2.13;;;;;;;7.22;100.00;98961.28;5046014;28;20037;-61
2024/04/02 00:40:18;;;;;;;6.57;2.38;;;;;;;7.18;100.00;98963.16;5053027;28;20055;-61
2024/04/02 00:42:45;;;;;;;3.65;1.98;;;;;;;7.15;100.00;98964.69;5055528;28;20052;-61
2024/04/02 00:45:12;;;;;;;4.93;2.65;;;;;;;7.08;100.00;98966.53;5063300;28;20051;-62
2024/04/02 00:47:40;;;;;;;6.00;2.30;;;;;;;7.00;100.00;98964.78;5045664;28;20060;-61
2024/04/02 00:50:09;;;;;;;5.70;2.15;;;;;;;6.96;100.00;98961.19;5056800;28;20444;-61
2024/04/02 00:52:35;;;;;;;6.00;2.90;;;;;;;6.90;100.00;98968.16;5053665;28;20041;-61
2024/04/02 00:55:02;;;;;;;4.72;2.40;;;;;;;6.80;100.00;98969.53;5058496;28;20052;-61
2024/04/02 00:57:29;;;;;;;5.57;2.83;;;;;;;6.75;100.00;98970.59;5059140;28;20524;-62
2024/04/02 00:59:56;;;;;;;3.30;2.35;;;;;;;6.70;100.00;98962.66;5056221;28;20052;-61
2024/04/02 01:02:22;;;;;;;7.35;3.33;;;;;;;6.68;100.00;98964.19;5054432;28;20521;-62
2024/04/02 01:04:49;;;;;;;5.63;3.00;;;;;;;6.62;100.00;98971.91;5055990;28;20494;-61
2024/04/02 01:07:16;;;;;;;5.40;3.70;;;;;;;6.58;100.00;98968.31;5060130;28;20057;-61
2024/04/02 01:09:45;;;;;;;7.72;3.47;;;;;;;6.54;100.00;98974.91;5053683;28;20853;-61
2024/04/02 01:12:11;;;;;;;6.07;4.45;;;;;;;6.50;100.00;98979.50;5054624;28;20052;-62
2024/04/02 01:14:41;;;;;;;7.35;4.35;;;;;;;6.49;100.00;98977.91;5052160;28;20537;-61
2024/04/02 01:17:08;;;;;;;4.10;3.25;;;;;;;6.48;100.00;98987.34;5060533;28;20442;-61
2024/04/02 01:19:34;;;;;;;11.10;3.80;;;;;;;6.45;100.00;98972.34;5056628;28;20063;-61
2024/04/02 01:22:02;;;;;;;6.57;4.07;;;;;;;6.45;100.00;98983.34;5045293;28;20045;-61
2024/04/02 01:24:29;;;;;;;8.43;4.50;;;;;;;6.43;100.00;98990.38;5037647;28;20520;-61
2024/04/02 01:26:56;;;;;;;6.75;4.18;;;;;;;6.37;100.00;98992.59;5057177;28;20057;-61
2024/04/02 01:29:22;;;;;;;7.20;3.80;;;;;;;6.35;100.00;98994.94;5048844;28;20056;-62
2024/04/02 01:31:51;;;;;;;6.97;3.30;;;;;;;6.33;100.00;98991.72;5055641;28;20072;-61
2024/04/02 01:34:18;;;;;;;5.72;4.20;;;;;;;6.29;100.00;98998.31;5065111;28;20742;-61
2024/04/02 01:36:44;;;;;;;5.32;3.60;;;;;;;6.26;100.00;99007.25;5058428;28;20502;-61
2024/04/02 01:39:11;;;;;;;6.03;3.97;;;;;;;6.24;100.00;99010.38;5048205;28;20045;-61
2024/04/02 01:41:37;;;;;;;7.25;3.42;;;;;;;6.20;100.00;99012.22;5048723;28;20048;-61
2024/04/02 01:44:04;;;;;;;7.60;4.50;;;;;;;6.18;100.00;99017.28;5058020;28;20052;-61
2024/04/02 01:46:30;;;;;;;7.13;3.60;;;;;;;6.16;100.00;99025.09;5063348;28;20524;-61
2024/04/02 01:48:57;;;;;;;7.00;3.58;;;;;;;6.14;100.00;99024.69;5052337;28;20052;-61
2024/04/02 01:51:25;;;;;;;5.28;3.83;;;;;;;6.11;100.00;99023.44;5045102;28;20099;-62
2024/04/02 01:53:52;;;;;;;4.85;3.40;;;;;;;6.12;100.00;99015.97;5047625;28;20053;-61
2024/04/02 01:56:18;;;;;;;9.38;4.22;;;;;;;6.12;100.00;99025.00;5058683;28;20041;-61
2024/04/02 01:58:44;;;;;;;8.88;4.20;;;;;;;6.11;100.00;99033.63;5061775;28;20048;-61
2024/04/02 02:01:11;;;;;;;5.43;4.50;;;;;;;6.13;100.00;99032.13;5053760;28;20045;-61
2024/04/02 02:03:37;;;;;;;5.57;4.38;;;;;;;6.17;100.00;99036.91;5048325;28;20056;-61
2024/04/02 02:06:05;;;;;;;6.57;4.28;;;;;;;6.17;100.00;99037.66;5060878;28;20665;-62
2024/04/02 02:08:32;;;;;;;7.22;4.82;;;;;;;6.12;100.00;99030.50;5059807;28;20544;-61
2024/04/02 02:11:03;;;;;;;7.05;3.58;;;;;;;6.09;100.00;99038.66;5051683;28;20056;-61
2024/04/02 02:13:34;;;;;;;4.57;3.58;;;;;;;6.05;100.00;99029.53;5051680;28;20506;-61
2024/04/02 02:16:00;;;;;;;4.45;3.72;;;;;;;6.00;100.00;99021.59;5060062;28;20056;-61
2024/04/02 02:18:29;;;;;;;6.43;4.63;;;;;;;5.96;100.00;99031.69;5037256;28;20859;-61
2024/04/02 02:20:56;;;;;;;7.45;4.30;;;;;;;5.96;100.00;99031.69;5056771;28;20044;-62
2024/04/02 02:23:23;;;;;;;8.43;5.07;;;;;;;5.97;100.00;99036.81;5063784;28;20052;-62
2024/04/02 02:25:49;;;;;;;7.70;4.22;;;;;;;5.98;100.00;99040.38;5055658;28;20036;-62
2024/04/02 02:28:16;;;;;;;9.00;4.60;;;;;;;5.95;100.00;99035.59;5055668;28;20048;-62
2024/04/02 02:30:42;;;;;;;6.68;4.32;;;;;;;5.95;100.00;99030.09;5040720;28;20747;-61
2024/04/02 02:33:10;;;;;;;7.15;4.72;;;;;;;5.91;100.00;99040.19;5065154;28;20884;-61
2024/04/02 02:35:36;;;;;;;6.60;4.43;;;;;;;5.87;100.00;99033.81;5066565;28;20052;-62
2024/04/02 02:38:03;;;;;;;6.65;4.47;;;;;;;5.84;100.00;99037.25;5054326;28;20052;-62
2024/04/02 02:40:30;;;;;;;6.50;4.35;;;;;;;5.86;100.00;99037.72;5064488;28;20501;-61
2024/04/02 02:42:57;;;;;;;6.35;4.20;;;;;;;5.80;100.00;99033.63;5062105;28;20059;-61
2024/04/02 02:45:24;;;;;;;7.05;4.20;;;;;;;5.75;100.00;99037.41;5056777;28;20056;-62
2024/04/02 02:47:51;;;;;;;6.55;4.40;;;;;;;5.70;100.00;99036.88;5061625;28;20040;-62
2024/04/02 02:50:17;;;;;;;5.43;4.55;;;;;;;5.68;100.00;99040.00;5069761;28;20048;-62
2024/04/02 02:52:44;;;;;;;9.35;4.90;;;;;;;5.68;100.00;99030.97;5061160;28;20422;-62
2024/04/02 02:55:10;;;;;;;7.38;4.05;;;;;;;5.67;100.00;99032.09;5061204;28;20083;-62
2024/04/02 02:57:36;;;;;;;7.50;4.63;;;;;;;5.63;100.00;99040.28;5056662;28;20052;-61
2024/04/02 03:00:06;;;;;;;5.90;4.50;;;;;;;5.62;100.00;99040.59;5052723;28;20055;-61
2024/04/02 03:02:34;;;;;;;7.22;5.72;;;;;;;5.60;100.00;99034.69;5147881;22;20068;-61
2024/04/02 03:05:00;;;;;;;6.30;4.65;;;;;;;5.58;100.00;99039.72;5046689;28;20052;-61
2024/04/02 03:07:26;;;;;;;7.18;4.90;;;;;;;5.56;100.00;99037.31;5046925;28;20045;-61
2024/04/02 03:09:54;;;;;;;5.88;4.65;;;;;;;5.58;100.00;99047.97;5030405;28;20510;-62
2024/04/02 03:12:20;;;;;;;7.90;4.43;;;;;;;5.50;100.00;99047.78;5046783;28;20052;-62
2024/04/02 03:14:47;;;;;;;6.85;5.05;;;;;;;5.47;100.00;99042.19;5046510;28;20057;-62
2024/04/02 03:17:13;;;;;;;7.03;4.75;;;;;;;5.47;100.00;99053.19;5044848;28;20056;-62
2024/04/02 03:19:39;;;;;;;8.05;4.75;;;;;;;5.43;100.00;99047.59;5037666;28;20052;-61
2024/04/02 03:22:05;;;;;;;8.00;4.78;;;;;;;5.39;100.00;99043.97;5030332;28;20956;-61
2024/04/02 03:24:32;;;;;;;7.75;5.32;;;;;;;5.37;100.00;99040.78;5046974;28;20396;-61
2024/04/02 03:26:58;;;;;;;6.22;5.15;;;;;;;5.34;100.00;99048.91;5046079;28;20060;-61
2024/04/02 03:29:24;;;;;;;9.25;4.97;;;;;;;5.31;100.00;99061.38;5046258;28;20057;-61
2024/04/02 03:31:51;;;;;;;10.93;5.25;;;;;;;5.31;100.00;99061.38;5045342;28;20060;-62
2024/04/02 03:34:17;;;;;;;7.15;4.38;;;;;;;5.32;100.00;99062.97;5045829;28;20044;-61
2024/04/02 03:36:44;;;;;;;7.72;4.90;;;;;;;5.26;100.00;99064.38;5045700;28;20498;-61
2024/04/02 03:39:10;;;;;;;10.75;5.75;;;;;;;5.22;100.00;99073.66;5047594;28;20060;-61
2024/04/02 03:41:36;;;;;;;8.63;5.70;;;;;;;5.19;100.00;99069.66;5045233;28;20119;-61
2024/04/02 03:44:03;;;;;;;9.30;5.20;;;;;;;5.16;100.00;99067.66;5045515;28;20049;-61
2024/04/02 03:46:29;;;;;;;8.15;5.40;;;;;;;5.13;100.00;99071.09;5045729;28;20049;-61
2024/04/02 03:48:56;;;;;;;7.20;4.82;;;;;;;5.11;100.00;99067.09;5046160;28;20049;-61
2024/04/02 03:51:22;;;;;;;9.32;5.38;;;;;;;5.10;100.00;99065.50;5045512;28;20081;-62
2024/04/02 03:53:48;;;;;;;9.05;6.55;;;;;;;5.06;100.00;99065.38;5046798;28;20049;-61
2024/04/02 03:56:16;;;;;;;11.77;5.38;;;;;;;5.07;100.00;99067.00;5046186;28;20050;-61
2024/04/02 03:58:42;;;;;;;9.25;5.45;;;;;;;5.08;100.00;99067.78;5046793;28;20060;-61
2024/04/02 04:01:09;;;;;;;9.63;5.43;;;;;;;5.06;100.00;99068.13;5046053;28;20061;-61
2024/04/02 04:03:36;;;;;;;8.45;6.03;;;;;;;5.05;100.00;99073.97;5046589;28;20050;-61
2024/04/02 04:06:04;;;;;;;10.02;6.55;;;;;;;5.04;100.00;99089.63;5045903;28;20399;-61
2024/04/02 04:08:32;;;;;;;10.63;6.22;;;;;;;5.03;100.00;99093.50;5045455;28;20041;-61
2024/04/02 04:10:59;;;;;;;11.30;6.97;;;;;;;5.05;100.00;99095.91;5045075;28;20049;-61
2024/04/02 04:13:26;;;;;;;13.25;6.68;;;;;;;5.03;100.00;99109.97;5045931;28;20049;-61
2024/04/02 04:15:56;;;;;;;10.23;6.15;;;;;;;5.04;100.00;99106.06;5036775;28;20047;-60
2024/04/02 04:18:25;;;;;;;14.15;6.25;;;;;;;5.04;100.00;99103.34;5045490;28;20068;-61
2024/04/02 04:20:58;;;;;;;16.67;7.28;;;;;;;5.02;100.00;99108.38;5043532;28;20046;-61
2024/04/02 04:23:25;;;;;;;12.25;7.40;;;;;;;5.02;100.00;99110.31;5046305;28;20152;-61
2024/04/02 04:26:01;;;;;;;10.63;6.45;;;;;;;5.00;100.00;99110.69;5036114;28;20045;-62
2024/04/02 04:28:29;;;;;;;13.20;6.60;;;;;;;5.00;100.00;99110.69;5046235;28;20087;-61
2024/04/02 04:30:57;;;;;;;11.32;6.72;;;;;;;5.03;100.00;99112.69;5044720;28;20049;-61
2024/04/02 04:33:24;;;;;;;10.98;6.90;;;;;;;5.05;100.00;99118.66;5029571;28;20049;-61
2024/04/02 04:35:53;;;;;;;12.05;6.18;;;;;;;5.06;100.00;99120.22;5045989;28;20049;-61
2024/04/02 04:38:20;;;;;;;14.02;7.47;;;;;;;5.04;100.00;99130.75;5045336;28;20847;-61
2024/04/02 04:40:46;;;;;;;15.40;6.57;;;;;;;5.01;100.00;99131.44;5045865;28;20045;-61
2024/04/02 04:43:15;;;;;;;9.25;5.90;;;;;;;4.98;100.00;99134.13;5044096;28;20048;-61
2024/04/02 04:45:49;;;;;;;9.80;6.60;;;;;;;4.99;100.00;99139.25;5045094;28;20044;-61
2024/04/02 04:48:15;;;;;;;15.80;7.32;;;;;;;4.98;100.00;99145.09;5045689;28;20049;-61
2024/04/02 04:50:41;;;;;;;12.13;7.18;;;;;;;4.92;100.00;99147.25;5045690;28;20033;-61
2024/04/02 04:53:07;;;;;;;10.32;6.60;;;;;;;4.89;100.00;99136.97;5044432;28;20167;-63
2024/04/02 04:55:34;;;;;;;12.52;6.97;;;;;;;4.85;100.00;99155.25;5045811;28;20048;-62
2024/04/02 04:58:00;;;;;;;13.73;8.00;;;;;;;4.76;100.00;99155.41;5046025;28;20045;-61
2024/04/02 05:00:26;;;;;;;14.00;8.35;;;;;;;4.77;100.00;99159.72;5045595;28;20052;-61
2024/04/02 05:02:52;;;;;;;11.90;6.72;;;;;;;4.82;100.00;99161.44;5044914;28;20057;-61
2024/04/02 05:05:19;;;;;;;16.90;8.15;;;;;;;4.84;100.00;99162.69;5045222;28;20057;-61
2024/04/02 05:08:20;;;;;;;12.82;8.18;;;;;;;4.84;100.00;99159.16;5043570;28;20049;-61
2024/04/02 05:10:48;;;;;;;12.63;7.72;;;;;;;4.84;100.00;99159.94;5043736;28;20060;-61
2024/04/02 05:13:15;;;;;;;16.27;7.93;;;;;;;4.87;100.00;99166.69;5045582;28;20045;-61
2024/04/02 05:15:43;;;;;;;13.00;7.63;;;;;;;4.89;100.00;99169.88;5044955;28;20048;-61
2024/04/02 05:18:09;;;;;;;13.52;7.40;;;;;;;4.91;100.00;99171.13;5045552;28;20057;-61
2024/04/02 05:20:36;;;;;;;12.90;7.65;;;;;;;4.93;100.00;99177.06;5045522;28;20037;-62
2024/04/02 05:23:03;;;;;;;14.40;7.00;;;;;;;4.94;100.00;99172.38;5045719;28;20067;-61
2024/04/02 05:25:30;;;;;;;12.50;7.93;;;;;;;4.96;100.00;99181.06;5044707;28;20490;-61
2024/04/02 05:27:56;;;;;;;13.75;7.45;;;;;;;5.01;100.00;99180.00;5045446;28;20052;-61
2024/04/02 05:30:22;;;;;;;14.30;7.85;;;;;;;5.04;100.00;99182.88;5045303;28;20052;-61
2024/04/02 05:32:49;;;;;;;13.35;8.05;;;;;;;5.08;100.00;99175.56;5045280;28;20049;-61
2024/04/02 05:35:15;;;;;;;15.02;7.05;;;;;;;5.05;100.00;99179.00;5033127;28;20041;-61
2024/04/02 05:37:42;;;;;;;14.85;8.07;;;;;;;5.02;100.00;99187.09;5044710;28;20045;-61
2024/04/02 05:40:08;;;;;;;12.63;8.05;;;;;;;5.03;100.00;99186.75;5044970;28;20533;-61
2024/04/02 05:42:35;;;;;;;11.10;7.80;;;;;;;4.99;100.00;99196.03;5045034;28;20090;-61
2024/04/02 05:45:01;;;;;;;15.10;7.70;;;;;;;4.96;100.00;99191.22;5025409;28;20046;-61
2024/04/02 05:47:28;;;;;;;15.27;9.13;;;;;;;4.89;100.00;99183.59;5036372;28;20056;-61
2024/04/02 05:49:54;;;;;;;16.98;8.73;;;;;;;4.87;100.00;99188.63;5045274;28;20052;-61
2024/04/02 05:52:20;;;;;;;15.38;8.88;;;;;;;4.81;100.00;99184.53;5045531;28;20044;-61
2024/04/02 05:54:46;;;;;;;16.60;9.77;;;;;;;4.75;100.00;99186.69;5040181;28;20042;-61
2024/04/02 05:57:15;;;;;;;15.60;8.15;;;;;;;4.69;100.00;99190.00;5035700;28;20056;-62
2024/04/02 05:59:42;;;;;;;13.38;8.07;;;;;;;4.68;100.00;99191.16;5044775;28;20048;-62
2024/04/02 06:02:08;;;;;;;15.68;7.90;;;;;;;4.71;100.00;99195.97;5044614;28;20068;-61
2024/04/02 06:04:36;;;;;;;15.85;7.53;;;;;;;4.69;100.00;99196.28;5044810;28;20056;-61
2024/04/02 06:07:02;;;;;;;13.55;8.32;;;;;;;4.68;100.00;99202.13;5044460;28;20049;-61
2024/04/02 06:09:29;;;;;;;14.20;8.15;;;;;;;4.62;100.00;99198.81;5044282;28;20059;-62
2024/04/02 06:11:55;;;;;;;12.85;8.32;;;;;;;4.57;100.00;99206.47;5045052;28;20510;-62
2024/04/02 06:14:21;;;;;;;14.40;8.32;;;;;;;4.53;100.00;99205.53;5041104;28;20048;-61
2024/04/02 06:16:47;;;;;;;13.65;8.70;;;;;;;4.53;100.00;99211.03;5044362;28;20041;-61
2024/04/02 06:19:14;;;;;;;16.00;8.73;;;;;;;4.54;100.00;99213.44;5043883;28;20040;-62
2024/04/02 06:21:40;;;;;;;17.55;8.85;;;;;;;4.54;100.00;99212.63;5044699;28;20041;-62
2024/04/02 06:24:06;;;;;;;16.20;9.25;;;;;;;4.55;100.00;99209.56;5024429;28;20054;-61
2024/04/02 06:26:32;;;;;;;14.75;7.97;;;;;;;4.55;100.00;99204.09;5038036;28;20056;-61
2024/04/02 06:28:59;;;;;;;16.42;8.63;;;;;;;4.55;100.00;99209.56;5030815;28;20045;-61
2024/04/02 06:31:26;;;;;;;15.57;8.35;;;;;;;4.59;100.00;99215.13;5044824;28;20045;-61
2024/04/02 06:33:52;;;;;;;18.75;9.65;;;;;;;4.59;100.00;99201.44;5042770;28;20109;-61
2024/04/02 06:36:19;;;;;;;14.90;8.95;;;;;;;4.60;100.00;99200.31;5043138;28;20061;-62
2024/04/02 06:38:46;;;;;;;16.48;8.85;;;;;;;4.62;100.00;99217.19;5044075;28;20037;-61
2024/04/02 06:41:12;;;;;;;14.85;8.50;;;;;;;4.68;100.00;99222.13;5044502;28;20064;-61
2024/04/02 06:43:38;;;;;;;16.30;8.85;;;;;;;4.71;100.00;99224.16;5043969;28;20041;-61
2024/04/02 06:46:04;;;;;;;32.72;11.13;;;;;;;4.75;100.00;99232.50;5025970;28;20043;-61
2024/04/02 06:48:31;;;;;;;19.15;9.77;;;;;;;4.79;100.00;99234.19;5041563;28;20037;-61
2024/04/02 06:51:02;;;;;;;15.82;9.57;;;;;;;4.82;100.00;99229.97;5044121;28;20045;-62
2024/04/02 06:53:30;;;;;;;18.50;8.85;;;;;;;4.84;100.00;99233.19;5036507;28;20040;-62
2024/04/02 06:55:57;;;;;;;13.50;8.10;;;;;;;4.85;100.00;99240.25;5028416;28;20048;-63
2024/04/02 06:58:23;;;;;;;18.60;8.90;;;;;;;4.89;100.00;99242.00;5044043;28;20060;-62
2024/04/02 07:00:51;;;;;;;15.80;9.88;;;;;;;4.95;100.00;99234.31;5025631;28;20071;-62
2024/04/02 07:03:21;;;;;;;16.83;9.90;;;;;;;4.99;100.00;99229.75;5044185;28;20057;-61
2024/04/02 07:05:49;;;;;;;19.08;9.80;;;;;;;5.03;100.00;99230.63;5032721;28;20061;-62
2024/04/02 07:08:15;;;;;;;13.77;8.02;;;;;;;5.07;100.00;99237.03;5047861;28;20057;-61
2024/04/02 07:10:44;;;;;;;15.45;9.60;;;;;;;5.09;100.00;99240.22;5047358;28;20049;-62
2024/04/02 07:13:14;;;;;;;18.00;9.35;;;;;;;5.12;100.00;99239.53;5047953;28;20049;-63
2024/04/02 07:15:41;;;;;;;18.95;10.15;;;;;;;5.19;100.00;99244.47;5030591;28;20136;-62
2024/04/02 07:18:08;;;;;;;16.48;9.60;;;;;;;5.22;100.00;99246.50;5047929;28;20456;-62
2024/04/02 07:20:34;;;;;;;20.63;9.35;;;;;;;5.24;100.00;99242.25;5046882;28;20080;-62
2024/04/02 07:23:00;;;;;;;22.15;9.93;;;;;;;5.28;100.00;99247.84;5047058;28;20051;-62
2024/04/02 07:25:27;;;;;;;22.58;10.65;;;;;;;5.34;100.00;99247.28;5045158;28;20136;-62
2024/04/02 07:27:53;;;;;;;16.17;10.55;;;;;;;5.39;100.00;99258.03;5047660;28;20041;-63
2024/04/02 07:30:20;;;;;;;21.45;10.73;;;;;;;5.44;100.00;99252.28;5046612;28;20052;-62
2024/04/02 07:32:46;;;;;;;24.48;12.20;;;;;;;5.49;100.00;99240.25;5047548;28;20060;-63
2024/04/02 07:35:12;;;;;;;20.75;10.88;;;;;;;5.51;100.00;99236.00;5047589;28;20056;-62
2024/04/02 07:37:38;;;;;;;20.83;11.07;;;;;;;5.56;100.00;99236.94;5037601;28;20856;-63
2024/04/02 07:40:06;;;;;;;19.42;10.63;;;;;;;5.61;100.00;99245.72;5038145;28;20049;-63
2024/04/02 07:42:32;;;;;;;27.65;12.48;;;;;;;5.65;100.00;99241.13;5037831;28;20049;-63
2024/04/02 07:44:59;;;;;;;30.88;19.75;;;;;;;5.70;100.00;99245.56;5043407;28;20052;-64
2024/04/02 07:47:25;;;;;;;119.93;67.28;;;;;;;5.75;100.00;99245.28;5045661;28;20056;-64
2024/04/02 07:49:52;;;;;;;25.83;13.88;;;;;;;5.81;100.00;99243.91;5046532;28;20045;-62
2024/04/02 07:52:18;;;;;;;23.83;13.57;;;;;;;5.85;100.00;99242.88;5045716;28;20044;-62
2024/04/02 07:54:44;;;;;;;21.75;11.73;;;;;;;5.90;100.00;99247.34;5045870;28;20057;-62
2024/04/02 07:57:11;;;;;;;24.77;12.05;;;;;;;5.95;100.00;99256.13;5037053;28;20048;-61
2024/04/02 07:59:37;;;;;;;22.85;10.00;;;;;;;6.00;100.00;99264.13;5045416;28;20410;-62
2024/04/02 08:02:03;;;;;;;20.05;9.90;;;;;;;6.03;100.00;99262.63;5039100;28;20049;-62
2024/04/02 08:04:29;;;;;;;19.38;10.60;;;;;;;6.06;100.00;99250.94;5030975;28;20064;-61
2024/04/02 08:06:56;;;;;;;29.92;12.02;;;;;;;6.11;100.00;99251.47;5038040;28;20063;-62
2024/04/02 08:09:23;;;;;;;18.52;10.65;;;;;;;6.18;100.00;99261.03;5046236;28;20052;-63
2024/04/02 08:11:49;;;;;;;19.38;10.70;;;;;;;6.24;100.00;99249.44;5044367;28;20041;-64
2024/04/02 08:14:15;;;;;;;20.45;9.30;;;;;;;6.27;100.00;99251.50;5053871;28;20530;-63
2024/04/02 08:16:41;;;;;;;17.45;9.85;;;;;;;6.31;100.00;99246.06;5044356;28;20379;-64
2024/04/02 08:19:08;;;;;;;13.20;8.15;;;;;;;6.37;100.00;99250.97;5045706;28;20140;-64
2024/04/02 08:21:34;;;;;;;17.92;9.93;;;;;;;6.42;100.00;99250.69;5045473;28;20049;-63
2024/04/02 08:24:00;;;;;;;14.93;9.13;;;;;;;6.47;100.00;99250.44;5045831;28;20049;-64
2024/04/02 08:26:28;;;;;;;21.35;10.38;;;;;;;6.52;100.00;99247.41;5042598;28;20056;-64
2024/04/02 08:28:54;;;;;;;14.10;8.95;;;;;;;6.57;100.00;99255.41;5046786;28;20049;-63
2024/04/02 08:31:20;;;;;;;12.60;6.88;;;;;;;6.65;100.00;99257.19;5044759;28;20049;-64
2024/04/02 08:33:47;;;;;;;11.38;7.10;;;;;;;6.74;100.00;99260.56;5046000;28;20049;-65
2024/04/02 08:36:13;;;;;;;12.45;7.35;;;;;;;6.83;100.00;99268.59;5045491;28;20564;-64
2024/04/02 08:38:39;;;;;;;13.05;7.50;;;;;;;6.93;100.00;99262.59;5040365;28;20084;-63
2024/04/02 08:41:09;;;;;;;10.88;7.20;;;;;;;7.07;100.00;99254.66;5038037;28;20044;-64
2024/04/02 08:43:35;;;;;;;10.27;6.13;;;;;;;7.22;100.00;99264.84;5044396;28;20044;-65
2024/04/02 08:46:02;;;;;;;10.88;6.60;;;;;;;7.38;100.00;99267.56;5044839;28;20045;-63
2024/04/02 08:48:29;;;;;;;8.50;5.47;;;;;;;7.58;100.00;99266.41;5045512;28;20044;-64
2024/04/02 08:51:00;;;;;;;6.90;5.57;;;;;;;7.80;100.00;99265.69;5043950;28;20049;-65
2024/04/02 08:53:26;;;;;;;8.63;5.20;;;;;;;8.07;100.00;99266.63;5042862;28;20510;-65
2024/04/02 08:55:56;;;;;;;7.28;4.20;;;;;;;8.44;100.00;99267.75;5044417;28;20049;-65
2024/04/02 08:58:24;;;;;;;7.60;3.83;;;;;;;9.00;100.00;99273.41;5045740;28;20045;-66
2024/04/02 09:00:51;;;;;;;6.50;3.88;;;;;;;9.72;100.00;99267.75;5046266;28;20462;-65
2024/04/02 09:03:19;;;;;;;4.30;3.03;;;;;;;10.63;100.00;99290.16;5044512;28;20057;-65
2024/04/02 09:05:45;;;;;;;6.93;3.92;;;;;;;11.58;100.00;99296.47;5029030;28;20052;-66
2024/04/02 09:08:14;;;;;;;3.55;2.65;;;;;;;12.39;100.00;99298.03;5043884;28;20049;-65
2024/04/02 09:10:43;;;;;;;4.45;2.85;;;;;;;13.04;100.00;99306.06;5040541;28;20506;-66
2024/04/02 09:13:09;;;;;;;4.57;3.13;;;;;;;13.46;100.00;99314.41;5043582;28;20799;-64
2024/04/02 09:15:36;;;;;;;6.22;3.20;;;;;;;13.64;100.00;99320.75;5044140;28;20049;-65
2024/04/02 09:18:02;;;;;;;4.82;4.18;;;;;;;13.84;100.00;99316.34;5043815;28;20063;-63
2024/04/02 09:20:32;;;;;;;6.55;4.18;;;;;;;14.21;100.00;99328.94;5044444;28;20064;-64
2024/04/02 09:22:58;;;;;;;4.78;3.63;;;;;;;14.85;100.00;99321.84;5044800;28;20103;-65
2024/04/02 09:25:25;;;;;;;7.97;4.18;;;;;;;15.45;100.00;99326.97;5043844;28;20498;-65
2024/04/02 09:27:52;;;;;;;5.45;3.92;;;;;;;16.15;98.10;99325.44;5043961;28;20111;-66
2024/04/02 09:30:19;;;;;;;7.78;4.65;;;;;;;16.70;94.99;99332.75;5043028;28;20041;-65
2024/04/02 09:32:46;;;;;;;7.60;4.82;;;;;;;17.10;93.00;99339.38;5044842;28;20052;-65
2024/04/02 09:35:13;;;;;;;6.90;4.72;;;;;;;17.44;91.04;99338.00;5044342;28;20877;-65
2024/04/02 09:37:49;;;;;;;5.57;4.00;;;;;;;17.79;89.72;99333.03;5044078;28;20489;-64
2024/04/02 09:40:16;;;;;;;4.38;3.75;;;;;;;18.10;85.85;99337.22;5044189;28;20542;-64
2024/04/02 09:42:47;;;;;;;5.35;4.38;;;;;;;18.39;84.27;99341.03;5043778;28;20055;-66
2024/04/02 09:45:15;;;;;;;5.18;4.22;;;;;;;18.59;81.62;99341.84;5044452;28;20049;-65
2024/04/02 09:47:45;;;;;;;4.53;3.00;;;;;;;18.67;79.72;99351.69;5043409;28;20041;-64
2024/04/02 09:50:12;;;;;;;9.43;3.75;;;;;;;18.65;76.70;99348.53;5044517;28;20056;-65
2024/04/02 09:52:41;;;;;;;5.28;3.42;;;;;;;18.68;75.45;99344.06;5044154;28;20057;-62
2024/04/02 09:55:08;;;;;;;5.57;3.90;;;;;;;18.68;74.01;99358.88;5028579;28;20529;-62
2024/04/02 09:57:36;;;;;;;4.75;3.95;;;;;;;18.53;71.89;99345.59;5044041;28;20087;-62
2024/04/02 10:00:04;;;;;;;5.78;3.97;;;;;;;18.40;70.89;99358.66;5032459;28;20029;-62
2024/04/02 10:02:33;;;;;;;4.43;3.83;;;;;;;18.24;69.53;99353.78;5043598;28;20053;-63
2024/04/02 10:04:59;;;;;;;4.65;3.58;;;;;;;17.89;68.45;99351.63;5035540;28;20047;-63
2024/04/02 10:07:30;;;;;;;12.00;4.82;;;;;;;17.13;69.79;99344.13;5044535;28;20067;-65
2024/04/02 10:09:57;;;;;;;7.45;4.03;;;;;;;16.84;68.95;99355.69;5044094;28;20048;-66
2024/04/02 10:12:30;;;;;;;4.25;3.55;;;;;;;16.72;69.29;99345.09;5044815;28;20055;-65
2024/04/02 10:14:57;;;;;;;7.45;3.25;;;;;;;16.48;67.49;99348.19;5044603;28;20056;-64
2024/04/02 10:17:24;;;;;;;5.10;3.00;;;;;;;15.82;67.58;99346.56;5043984;28;20052;-64
2024/04/02 10:19:51;;;;;;;6.03;3.72;;;;;;;15.05;68.48;99342.41;5038593;28;20061;-64
2024/04/02 10:22:39;;;;;;;3.50;2.85;;;;;;;14.42;70.57;99331.66;5040861;28;20033;-64
2024/04/02 10:25:10;;;;;;;10.20;3.40;;;;;;;14.51;70.63;99334.78;5031216;28;20410;-64
2024/04/02 10:27:40;;;;;;;5.25;3.28;;;;;;;15.08;68.66;99326.88;5008670;28;20052;-64
2024/04/02 10:30:24;;;;;;;8.63;5.50;;;;;;;15.58;67.10;99313.31;5038556;28;20060;-64
2024/04/02 10:32:51;;;;;;;8.38;5.15;;;;;;;15.62;66.30;99333.63;5042652;28;20367;-63
2024/04/02 10:35:25;;;;;;;7.13;3.92;;;;;;;15.70;65.94;99337.94;5043607;28;20041;-62
2024/04/02 10:37:55;;;;;;;9.27;5.03;;;;;;;15.80;65.52;99337.03;5041488;28;20070;-63
2024/04/02 10:40:21;;;;;;;21.88;10.27;;;;;;;16.03;64.89;99339.16;5044887;28;20049;-63
2024/04/02 10:42:50;;;;;;;8.43;4.13;;;;;;;15.65;64.80;99341.13;5047933;28;20047;-64
2024/04/02 10:45:17;;;;;;;17.05;10.02;;;;;;;15.38;65.98;99329.78;5046825;28;20056;-64
2024/04/02 10:47:48;;;;;;;6.88;4.78;;;;;;;15.70;65.32;99326.75;5046512;28;20454;-64
2024/04/02 10:50:15;;;;;;;17.92;8.70;;;;;;;16.07;64.30;99329.53;5035163;28;20041;-63
2024/04/02 10:52:42;;;;;;;6.40;4.18;;;;;;;16.16;63.69;99332.63;5044959;28;20498;-64
2024/04/02 10:55:09;;;;;;;14.77;7.60;;;;;;;16.14;63.53;99335.03;5039690;28;20057;-63
2024/04/02 10:57:37;;;;;;;8.80;6.43;;;;;;;15.64;64.84;99339.56;5046098;28;20041;-63
2024/04/02 11:00:05;;;;;;;15.93;7.85;;;;;;;15.19;65.76;99336.75;5047397;28;20890;-63
2024/04/02 11:02:32;;;;;;;11.30;7.40;;;;;;;14.72;67.69;99328.31;5046888;28;20433;-63
2024/04/02 11:04:59;;;;;;;8.30;6.00;;;;;;;14.29;68.44;99336.84;5046590;28;20049;-63
2024/04/02 11:07:29;;;;;;;5.50;3.95;;;;;;;13.87;69.10;99323.09;5030287;28;20045;-63
2024/04/02 11:09:56;;;;;;;3.25;2.85;;;;;;;13.50;69.72;99308.84;5043608;28;20045;-63
2024/04/02 11:12:23;;;;;;;5.93;3.72;;;;;;;13.27;70.16;99309.25;5045243;28;20048;-63
2024/04/02 11:14:53;;;;;;;3.90;2.78;;;;;;;13.17;70.58;99310.06;5046870;28;20056;-62
2024/04/02 11:17:21;;;;;;;4.43;2.95;;;;;;;13.03;70.31;99312.81;5044916;28;20055;-60
2024/04/02 11:19:48;;;;;;;6.40;4.78;;;;;;;12.95;70.95;99313.97;5046666;28;20048;-62
2024/04/02 11:25:14;;;;;;;7.85;5.72;;;;;;;12.73;71.73;99294.50;5046833;28;20040;-62
2024/04/02 11:27:42;;;;;;;7.57;5.85;;;;;;;12.59;72.14;99302.03;5035848;28;20052;-62
2024/04/02 11:30:09;;;;;;;9.30;5.88;;;;;;;12.57;72.56;99305.22;5027564;28;20053;-62
2024/04/02 11:32:36;;;;;;;8.52;5.57;;;;;;;12.55;73.00;99298.47;5044362;28;20128;-62